Impacts METAR Board
IDs:

KLAS - Las Vegas/McCarran I, NV, US

Updated at: 2200 UTC 19 Jun 2018
Potential Impact None Slight Moderate High
Time 19/10Z 19/11Z 19/12Z 19/13Z 19/14Z 19/15Z 19/16Z 19/17Z 19/18Z 19/19Z 19/20Z 19/21Z 19/22Z
Temp77 75 75 78 79 82 87 90 91 93 94 96 97
Dewpt25 26 24 27 28 30 31 33 33 33 31 30 30
Altim29.88 29.88 29.90 29.91 29.93 29.95 29.95 29.95 29.95 29.94 29.93 29.91 29.89
VIS10 10 10 10 10 10 10 10 10 10 10 10 10
CIG-- -- -- -- -- -- -- -- -- -- -- -- --
CoverCLRCLRCLRCLRCLRCLRCLRFEWFEWCLRCLRCLRCLR
FltCatVFRVFRVFRVFRVFRVFRVFRVFRVFRVFRVFRVFRVFR
WX--------------------------
WDir210003600050200500400
WSpd4 0 0 4 5 0 4 6 6 9 5 4 4
WGst-- -- -- -- -- -- -- -- -- -- -- 15 --
Raw hourly METARs
KLAS 190956Z 21004KT 10SM CLR 25/M04 A2988 RMK AO2 SLP090 T02501039
KLAS 191056Z 00000KT 10SM CLR 24/M03 A2988 RMK AO2 SLP093 T02391033
KLAS 191156Z 00000KT 10SM CLR 24/M04 A2990 RMK AO2 SLP097 T02391044 10289 20233 53007
KLAS 191256Z 36004KT 10SM CLR 26/M03 A2991 RMK AO2 SLP102 T02561028
KLAS 191356Z VRB05KT 10SM CLR 26/M02 A2993 RMK AO2 SLP109 T02611022
KLAS 191456Z 00000KT 10SM CLR 28/M01 A2995 RMK AO2 SLP114 T02781011 51017
KLAS 191556Z 05004KT 10SM CLR 31/M01 A2995 RMK AO2 SLP115 T03061006
KLAS 191656Z 02006KT 10SM FEW250 32/01 A2995 RMK AO2 SLP113 T03220006
KLAS 191756Z VRB06KT 10SM FEW250 33/01 A2995 RMK AO2 SLP114 T03280006 10333 20239 51001
KLAS 191856Z 05009KT 10SM CLR 34/01 A2994 RMK AO2 SLP110 T03390006
KLAS 191956Z VRB05KT 10SM CLR 34/M01 A2993 RMK AO2 SLP106 T03441006
KLAS 192056Z 04004G15KT 10SM CLR 36/M01 A2991 RMK AO2 SLP100 T03561011 58014
KLAS 192156Z VRB04KT 10SM CLR 36/M01 A2989 RMK AO2 SLP094 T03611011



Page loaded:  22:07 UTC  |   03:07 PM Pacific  |   04:07 PM Mountain  |   05:07 PM Central  |   06:07 PM Eastern

 

ADVISORIES

FORECASTS

FORECASTS

OBSERVATIONS

USER TOOLS

ABOUT US